Flight Track Log - Related Links

Times and Time Zones

All times are in EDT time to prevent confusion due to time zone crossing. See the JIA2328 flight status page for this flight to view local times or setup timezone preferences in your user account.

Time Position Orientation Groundspeed Altitude Reporting Facility
EDT Latitude Longitude Course Direction KTS MPH feet Rate Location/Type
Thu 05:56:52 PM 35.1928 -80.9356 106° East 159 183 1,600  Level Atlanta Center
Thu 05:57:11 PM 35.1803 -80.9361 182° South 159 183 2,300 2,025 Climbing Atlanta Center
Thu 05:58:12 PM 35.1294 -80.9025 152° Southeast 224 258 4,300 1,907 Climbing Atlanta Center
Thu 05:58:58 PM 35.1150 -80.8217 102° East 269 310 5,700 2,038 Climbing Atlanta Center
Thu 05:59:00 PM 35.1000 -80.6332 109° East  Level FlightAware Approximate
Thu 05:59:58 PM 35.1019 -80.7283 100° East 289 333 7,900  Level Atlanta Center
Thu 06:00:00 PM 35.0667 -80.5112 90° East  Level FlightAware Approximate
Thu 06:00:14 PM 35.0972 -80.7108 108° East 302 348 8,000  Level Atlanta Center
Thu 06:00:58 PM 35.0808 -80.6378 105° East 331 381 9,300 2,250 Climbing Atlanta Center
Thu 06:01:00 PM 35.0399 -80.3870 106° East  Level FlightAware Approximate
Thu 06:01:58 PM 35.0611 -80.5344 103° East 332 382 11,900  Level Atlanta Center
Thu 06:02:00 PM 35.0104 -80.2633 106° East  Level FlightAware Approximate
Thu 06:03:54 PM 35.0211 -80.3244 103° East 335 386 15,300  Level Washington Center
Thu 06:04:55 PM 35.0003 -80.2167 103° East 346 398 16,200 992 Climbing Washington Center
Thu 06:05:55 PM 34.9683 -80.0731 105° East 382 440 17,300 1,017 Climbing Washington Center
Thu 06:06:53 PM 34.9378 -79.9422 106° East 396 456 18,200 857 Climbing Washington Center
Thu 06:07:54 PM 34.9428 -79.8031 87° East 396 456 19,000 397 Climbing Washington Center
Thu 06:08:54 PM 34.9478 -79.6539 88° East 416 479 19,000  Level Washington Center
Thu 06:09:55 PM 34.9550 -79.5047 87° East 427 491 19,000  Level Washington Center
Thu 06:10:53 PM 34.9617 -79.3556 87° East 439 505 19,000  Level Washington Center
Thu 06:11:54 PM 34.9686 -79.2036 87° East 439 505 19,000  Level Washington Center
Thu 06:12:54 PM 34.9772 -79.0519 86° East 439 505 19,000  Level Washington Center
Thu 06:13:53 PM 34.9817 -78.9000 88° East 439 505 19,000 -1,008 Level Washington Center
Thu 06:14:53 PM 34.9708 -78.7553 95° East 434 499 17,000 -2,016 Descending Washington Center
Thu 06:15:55 PM 34.9536 -78.6153 98° East 429 494 14,900 -2,262 Descending Washington Center
Thu 06:16:55 PM 34.9358 -78.4853 99° East 415 478 12,400 -1,983 Descending Washington Center
Thu 06:17:53 PM 34.9222 -78.3606 98° East 390 449 11,000 -756 Descending Washington Center
Thu 06:18:54 PM 34.9097 -78.2639 99° East 353 406 10,900 -984 Descending Washington Center
Thu 06:19:55 PM 34.8997 -78.1600 97° East 322 371 9,000 -1,866 Descending Washington Center
Thu 06:20:53 PM 34.8850 -78.0633 100° East 307 353 7,200 -1,916 Descending Washington Center
Thu 06:21:54 PM 34.8744 -77.9667 98° East 292 336 5,200 -1,869 Descending Washington Center
Thu 06:22:55 PM 34.8639 -77.8678 97° East 286 329 3,400 -1,770 Descending Washington Center

Login

Don't have an account? Register now (free) for customized features, flight alerts, and more!